CYFS

Fort Simpson Airport

Fort Simpson, Northwest Territories, Canada
METAR CYFS 240300Z 36004KT 15SM FEW100 FEW140 09/M05 A2969 RMK AC1AC1 AC TR SLP065
Observed Flight Rules
Sep-24 @ 03:00 UTC (47 minutes ago) Visual Flight Rules
Wind Visibility Clouds
360° at 4 knots 15 miles
  • Few at 10,000' AGL
  • Few at 14,000' AGL
Temperatures Readings
Current 9°C / 48°F
Dewpoint -5°C / 23°F
Humidity 37%
Altimeter 29.69" Hg
Pressure 1006.5 hPa
Elevation 169
METAR CYFS 240300Z 36004KT 15SM FEW100 FEW140 09/M05 A2969 RMK AC1AC1 AC TR SLP065
Observed Flight Rules
Sep-24 @ 03:00 UTC
(47 minutes ago)
VFR
Wind Visibility
360° at 4 knots 15 miles
Clouds
  • Few at 10,000' AGL
  • Few at 14,000' AGL
Temperature Dewpoint
9°C / 48°F -5°C / 23°F
Humidity Altimeter Pressure
37% 29.69" Hg 1006.5 hPa